createdAt,value
2024-01-28T00:02:31.691Z,100757.08
2024-01-28T00:05:35.315Z,100756.52
2024-01-28T00:08:38.301Z,100759.11
2024-01-28T00:11:41.255Z,100755.38
2024-01-28T00:14:44.359Z,100759.88
2024-01-28T00:17:47.255Z,100767.16
2024-01-28T00:20:50.246Z,100767.38
2024-01-28T00:23:53.648Z,100771.98
2024-01-28T00:26:56.571Z,100776.77
2024-01-28T00:29:59.541Z,100777.39
2024-01-28T00:33:02.708Z,100778.16
2024-01-28T00:36:06.290Z,100781.04
2024-01-28T00:39:09.189Z,100784.50
2024-01-28T00:42:12.037Z,100786.92
2024-01-28T00:45:15.047Z,100792.09
2024-01-28T00:48:18.063Z,100796.55
2024-01-28T00:51:21.061Z,100803.05
2024-01-28T00:54:25.260Z,100807.80
2024-01-28T00:57:28.292Z,100808.59
2024-01-28T01:00:32.471Z,100809.16
2024-01-28T01:03:35.632Z,100809.43
2024-01-28T01:06:41.011Z,100809.77
2024-01-28T01:09:44.118Z,100813.10
2024-01-28T01:12:47.171Z,100817.05
2024-01-28T01:15:50.055Z,100817.34
2024-01-28T01:18:53.158Z,100813.35
2024-01-28T01:21:58.225Z,100816.97
2024-01-28T01:25:01.496Z,100816.69
2024-01-28T01:28:04.933Z,100813.86
2024-01-28T01:31:07.889Z,100808.64
2024-01-28T01:34:10.995Z,100805.39
2024-01-28T01:37:13.969Z,100809.40
2024-01-28T01:40:17.080Z,100816.23
2024-01-28T01:43:21.220Z,100816.00
2024-01-28T01:46:24.028Z,100815.17
2024-01-28T01:49:28.462Z,100819.48
2024-01-28T01:52:31.923Z,100820.23
2024-01-28T01:55:36.299Z,100821.90
2024-01-28T01:58:39.617Z,100817.13
2024-01-28T02:01:43.779Z,100813.52
2024-01-28T02:04:46.709Z,100808.20
2024-01-28T02:07:49.661Z,100812.16
2024-01-28T02:10:52.526Z,100807.20
2024-01-28T02:13:55.384Z,100808.23
2024-01-28T02:17:02.588Z,100812.87
2024-01-28T02:20:05.762Z,100814.20
2024-01-28T02:23:09.160Z,100818.38
2024-01-28T02:26:12.570Z,100819.16
2024-01-28T02:29:15.529Z,100819.83
2024-01-28T02:32:19.730Z,100821.00
2024-01-28T02:35:22.615Z,100824.30
2024-01-28T02:38:25.481Z,100827.33
2024-01-28T02:41:28.332Z,100830.08
2024-01-28T02:44:31.369Z,100832.68
2024-01-28T02:47:34.195Z,100829.98
2024-01-28T02:50:37.023Z,100830.27
2024-01-28T02:53:39.961Z,100827.04
2024-01-28T02:56:43.544Z,100828.71
2024-01-28T02:59:46.395Z,100830.38
2024-01-28T03:02:49.894Z,100835.16
2024-01-28T03:05:53.179Z,100841.08
2024-01-28T03:08:55.955Z,100839.83
2024-01-28T03:11:59.120Z,100842.88
2024-01-28T03:15:02.203Z,100849.24
2024-01-28T03:18:05.346Z,100847.37
2024-01-28T03:21:08.567Z,100850.82
2024-01-28T03:24:11.534Z,100853.22
2024-01-28T03:27:14.655Z,100866.59
2024-01-28T03:30:18.681Z,100874.00
2024-01-28T03:33:21.926Z,100882.31
2024-01-28T03:36:25.691Z,100889.58
2024-01-28T03:39:28.675Z,100893.95
2024-01-28T03:42:32.109Z,100896.69
2024-01-28T03:45:35.122Z,100895.42
2024-01-28T03:48:38.110Z,100894.92
2024-01-28T03:51:41.038Z,100894.05
2024-01-28T03:54:44.047Z,100896.32
2024-01-28T03:57:47.532Z,100900.52
2024-01-28T04:00:50.627Z,100904.24
2024-01-28T04:03:58.683Z,100908.14
2024-01-28T04:07:02.816Z,100909.06
2024-01-28T04:10:06.776Z,100910.56
2024-01-28T04:13:09.614Z,100913.48
2024-01-28T04:16:12.457Z,100910.32
2024-01-28T04:19:15.360Z,100904.61
2024-01-28T04:22:18.776Z,100908.36
2024-01-28T04:25:21.703Z,100910.70
2024-01-28T04:28:26.562Z,100909.90
2024-01-28T04:31:30.820Z,100906.73
2024-01-28T04:34:35.201Z,100902.10
2024-01-28T04:37:38.201Z,100907.63
2024-01-28T04:40:41.558Z,100909.96
2024-01-28T04:43:44.515Z,100915.03
2024-01-28T04:46:47.702Z,100918.20
2024-01-28T04:49:50.784Z,100915.30
2024-01-28T04:52:53.880Z,100920.31
2024-01-28T04:55:56.678Z,100926.17
2024-01-28T04:58:59.787Z,100927.49
2024-01-28T05:02:03.296Z,100928.00
2024-01-28T05:05:06.538Z,100933.88
2024-01-28T05:08:10.341Z,100941.00
2024-01-28T05:11:13.219Z,100942.09
2024-01-28T05:14:16.050Z,100953.10
2024-01-28T05:17:19.124Z,100952.31
2024-01-28T05:20:23.013Z,100958.70
2024-01-28T05:23:25.952Z,100964.60
2024-01-28T05:26:28.753Z,100974.14
2024-01-28T05:29:31.585Z,100980.30
2024-01-28T05:32:34.552Z,100978.70
2024-01-28T05:35:38.205Z,100980.88
2024-01-28T05:38:41.651Z,100979.95
2024-01-28T05:41:46.704Z,100973.41
2024-01-28T05:44:51.043Z,100973.29
2024-01-28T05:47:54.121Z,100971.22
2024-01-28T05:50:57.230Z,100969.73
2024-01-28T05:54:00.096Z,100977.27
2024-01-28T05:57:03.065Z,100981.59
2024-01-28T06:00:07.475Z,100987.44
2024-01-28T06:03:11.967Z,100989.31
2024-01-28T06:06:15.220Z,100989.61
2024-01-28T06:09:19.533Z,100992.66
2024-01-28T06:12:22.529Z,100996.38
2024-01-28T06:15:25.640Z,101002.34
2024-01-28T06:18:28.693Z,101000.08
2024-01-28T06:21:31.625Z,101003.45
2024-01-28T06:24:36.707Z,101007.28
2024-01-28T06:27:39.689Z,101006.95
2024-01-28T06:30:42.738Z,101008.45
2024-01-28T06:33:45.746Z,101009.63
2024-01-28T06:36:49.195Z,101012.92
2024-01-28T06:39:53.367Z,101017.16
2024-01-28T06:42:56.327Z,101025.14
2024-01-28T06:46:00.878Z,101026.42
2024-01-28T06:49:05.175Z,101029.55
2024-01-28T06:52:08.121Z,101027.44
2024-01-28T06:55:11.548Z,101028.62
2024-01-28T06:58:14.451Z,101033.08
2024-01-28T07:01:18.137Z,101035.59
2024-01-28T07:04:21.264Z,101044.14
2024-01-28T07:07:24.399Z,101043.73
2024-01-28T07:10:29.226Z,101042.38
2024-01-28T07:13:32.353Z,101042.59
2024-01-28T07:16:36.617Z,101044.85
2024-01-28T07:19:42.007Z,101043.34
2024-01-28T07:22:45.277Z,101047.90
2024-01-28T07:25:49.738Z,101048.82
2024-01-28T07:28:52.752Z,101048.70
2024-01-28T07:31:55.804Z,101056.67
2024-01-28T07:34:58.875Z,101056.82
2024-01-28T07:38:01.779Z,101060.93
2024-01-28T07:41:05.090Z,101063.31
2024-01-28T07:44:08.269Z,101068.68
2024-01-28T07:47:11.150Z,101067.61
2024-01-28T07:50:14.286Z,101066.41
2024-01-28T07:53:17.312Z,101069.67
2024-01-28T07:56:20.136Z,101070.52
2024-01-28T07:59:23.480Z,101065.73
2024-01-28T08:02:26.334Z,101070.80
2024-01-28T08:05:29.162Z,101066.63
2024-01-28T08:08:34.132Z,101071.65
2024-01-28T08:11:38.039Z,101075.58
2024-01-28T08:14:40.941Z,101077.93
2024-01-28T08:17:45.582Z,101083.91
2024-01-28T08:20:48.612Z,101082.34
2024-01-28T08:23:51.499Z,101076.84
2024-01-28T08:26:54.617Z,101076.13
2024-01-28T08:29:58.148Z,101078.80
2024-01-28T08:33:01.079Z,101081.55
2024-01-28T08:36:04.204Z,101084.43
2024-01-28T08:39:07.160Z,101080.47
2024-01-28T08:42:10.252Z,101085.06
2024-01-28T08:45:13.304Z,101090.98
2024-01-28T08:48:16.420Z,101091.52
2024-01-28T08:51:19.493Z,101095.30
2024-01-28T08:54:22.408Z,101096.16
2024-01-28T08:57:25.688Z,101098.85
2024-01-28T09:00:28.843Z,101095.45
2024-01-28T09:03:32.744Z,101098.34
2024-01-28T09:06:37.217Z,101095.80
2024-01-28T09:09:40.680Z,101094.52
2024-01-28T09:12:43.665Z,101101.05
2024-01-28T09:15:46.584Z,101098.20
2024-01-28T09:18:49.445Z,101099.47
2024-01-28T09:21:52.792Z,101093.65
2024-01-28T09:24:55.869Z,101094.46
2024-01-28T09:27:58.750Z,101094.84
2024-01-28T09:31:01.721Z,101092.80
2024-01-28T09:34:05.633Z,101094.86
2024-01-28T09:37:09.223Z,101100.50
2024-01-28T09:40:13.205Z,101102.84
2024-01-28T09:43:31.436Z,101096.42
2024-01-28T09:46:36.929Z,101098.70
2024-01-28T09:49:41.345Z,101101.69
2024-01-28T09:52:44.385Z,101102.45
2024-01-28T09:55:47.344Z,101103.48
2024-01-28T09:58:50.805Z,101108.58
2024-01-28T10:01:54.374Z,101115.60
2024-01-28T10:04:57.826Z,101111.72
2024-01-28T10:08:03.477Z,101115.35
2024-01-28T10:11:06.510Z,101112.37
2024-01-28T10:14:11.621Z,101114.61
2024-01-28T10:17:14.845Z,101117.45
2024-01-28T10:20:19.603Z,101118.00
2024-01-28T10:23:22.562Z,101116.43
2024-01-28T10:26:25.395Z,101118.00
2024-01-28T10:29:29.330Z,101120.84
2024-01-28T10:32:32.254Z,101124.13
2024-01-28T10:35:35.171Z,101127.60
2024-01-28T10:38:44.103Z,101129.77
2024-01-28T10:41:55.502Z,101130.31
2024-01-28T10:45:00.897Z,101130.37
2024-01-28T10:48:08.822Z,101133.64
2024-01-28T10:51:15.134Z,101138.16
2024-01-28T10:54:18.311Z,101135.84
2024-01-28T10:57:22.524Z,101136.91
2024-01-28T11:00:27.709Z,101137.20
2024-01-28T11:03:31.096Z,101136.66
2024-01-28T11:06:34.490Z,101130.87
2024-01-28T11:09:38.549Z,101131.36
2024-01-28T11:12:41.947Z,101129.05
2024-01-28T11:15:46.732Z,101125.66
2024-01-28T11:19:05.496Z,101127.59
2024-01-28T11:22:15.502Z,101128.36
2024-01-28T11:25:26.516Z,101136.72
2024-01-28T11:28:30.689Z,101135.38
2024-01-28T11:31:35.581Z,101136.82
2024-01-28T11:34:38.665Z,101136.04
2024-01-28T11:37:59.587Z,101133.11
2024-01-28T11:41:03.531Z,101138.11
2024-01-28T11:44:08.922Z,101142.63
2024-01-28T11:47:14.404Z,101142.17
2024-01-28T11:50:17.832Z,101142.38
2024-01-28T11:53:20.744Z,101141.56
2024-01-28T11:56:23.729Z,101141.70
2024-01-28T11:59:26.567Z,101147.00
2024-01-28T12:02:29.453Z,101143.53
2024-01-28T12:05:32.402Z,101145.04
2024-01-28T12:08:40.541Z,101143.94
2024-01-28T12:11:43.957Z,101147.42
2024-01-28T12:14:46.896Z,101150.72
2024-01-28T12:17:52.471Z,101144.91
2024-01-28T12:20:55.411Z,101150.92
2024-01-28T12:24:05.181Z,101151.84
2024-01-28T12:27:08.314Z,101147.61
2024-01-28T12:30:11.707Z,101150.28
2024-01-28T12:33:14.779Z,101151.61
2024-01-28T12:36:18.453Z,101152.57
2024-01-28T12:39:21.588Z,101153.81
2024-01-28T12:42:24.545Z,101155.86
2024-01-28T12:45:27.707Z,101153.27
2024-01-28T12:48:30.907Z,101150.39
2024-01-28T12:51:33.995Z,101149.60
2024-01-28T12:54:37.018Z,101154.74
2024-01-28T12:57:40.611Z,101153.11
2024-01-28T13:00:44.311Z,101146.84
2024-01-28T13:03:47.765Z,101142.84
2024-01-28T13:06:50.771Z,101146.64
2024-01-28T13:09:53.837Z,101151.04
2024-01-28T13:12:57.223Z,101147.75
2024-01-28T13:16:01.351Z,101149.92
2024-01-28T13:19:04.506Z,101149.84
2024-01-28T13:22:07.502Z,101147.13
2024-01-28T13:25:11.571Z,101149.35
2024-01-28T13:28:14.562Z,101149.83
2024-01-28T13:31:18.108Z,101149.96
2024-01-28T13:34:21.321Z,101152.45
2024-01-28T13:37:24.307Z,101152.65
2024-01-28T13:40:27.146Z,101147.56
2024-01-28T13:43:35.612Z,101148.59
2024-01-28T13:46:38.700Z,101144.92
2024-01-28T13:49:41.674Z,101146.28
2024-01-28T13:52:44.569Z,101148.59
2024-01-28T13:55:47.645Z,101149.32
2024-01-28T13:58:50.622Z,101145.05
2024-01-28T14:01:53.433Z,101146.56
2024-01-28T14:04:56.315Z,101149.50
2024-01-28T14:07:59.295Z,101149.32
2024-01-28T14:11:02.300Z,101148.77
2024-01-28T14:14:05.098Z,101153.27
2024-01-28T14:17:10.246Z,101152.88
2024-01-28T14:20:13.233Z,101149.84
2024-01-28T14:23:16.129Z,101153.80
2024-01-28T14:26:19.229Z,101153.20
2024-01-28T14:29:23.295Z,101151.98
2024-01-28T14:32:27.650Z,101153.63
2024-01-28T14:35:30.499Z,101154.67
2024-01-28T14:38:34.430Z,101151.09
2024-01-28T14:41:37.265Z,101149.73
2024-01-28T14:44:40.054Z,101156.12
2024-01-28T14:47:43.977Z,101155.96
2024-01-28T14:50:46.850Z,101161.02
2024-01-28T14:53:49.732Z,101175.28
2024-01-28T14:56:52.612Z,101175.79
2024-01-28T14:59:56.374Z,101180.34
2024-01-28T15:03:00.123Z,101181.56
2024-01-28T15:06:03.305Z,101179.14
2024-01-28T15:09:07.663Z,101169.34
2024-01-28T15:12:10.472Z,101167.23
2024-01-28T15:15:15.656Z,101160.89
2024-01-28T15:18:18.984Z,101159.10
2024-01-28T15:21:25.699Z,101157.17
2024-01-28T15:24:28.610Z,101163.77
2024-01-28T15:27:31.459Z,101161.02
2024-01-28T15:30:34.520Z,101166.63
2024-01-28T15:33:37.583Z,101165.29
2024-01-28T15:36:40.992Z,101165.80
2024-01-28T15:39:43.973Z,101167.46
2024-01-28T15:42:48.371Z,101169.39
2024-01-28T15:45:51.819Z,101170.27
2024-01-28T15:48:56.417Z,101168.82
2024-01-28T15:51:59.493Z,101166.47
2024-01-28T15:55:02.436Z,101165.43
2024-01-28T15:58:05.521Z,101164.02
2024-01-28T16:01:09.157Z,101160.54
2024-01-28T16:04:12.169Z,101150.70
2024-01-28T16:07:15.329Z,101144.50
2024-01-28T16:10:18.383Z,101147.48
2024-01-28T16:13:21.296Z,101153.54
2024-01-28T16:16:24.399Z,101155.86
2024-01-28T16:19:28.375Z,101158.59
2024-01-28T16:22:31.358Z,101168.19
2024-01-28T16:25:34.638Z,101177.27
2024-01-28T16:28:37.615Z,101184.81
2024-01-28T16:31:40.673Z,101192.13
2024-01-28T16:34:43.723Z,101191.84
2024-01-28T16:37:51.362Z,101196.67
2024-01-28T16:40:54.245Z,101192.13
2024-01-28T16:43:57.192Z,101186.82
2024-01-28T16:47:00.372Z,101184.48
2024-01-28T16:50:05.199Z,101188.08
2024-01-28T16:53:08.161Z,101187.56
2024-01-28T16:56:11.805Z,101190.85
2024-01-28T16:59:15.044Z,101196.95
2024-01-28T17:02:18.056Z,101201.42
2024-01-28T17:05:21.043Z,101197.54
2024-01-28T17:08:25.180Z,101196.11
2024-01-28T17:11:27.988Z,101196.40
2024-01-28T17:14:31.047Z,101197.20
2024-01-28T17:17:34.085Z,101195.86
2024-01-28T17:20:37.353Z,101195.15
2024-01-28T17:23:40.936Z,101192.30
2024-01-28T17:26:45.790Z,101194.52
2024-01-28T17:29:49.326Z,101189.46
2024-01-28T17:32:52.262Z,101188.42
2024-01-28T17:35:55.360Z,101189.30
2024-01-28T17:38:58.265Z,101193.97
2024-01-28T17:42:01.217Z,101193.67
2024-01-28T17:45:05.734Z,101197.55
2024-01-28T17:48:08.703Z,101194.91
2024-01-28T17:51:11.681Z,101201.39
2024-01-28T17:54:15.948Z,101200.75
2024-01-28T17:57:19.943Z,101197.08
2024-01-28T18:00:22.954Z,101195.25
2024-01-28T18:03:26.003Z,101191.86
2024-01-28T18:06:29.028Z,101193.11
2024-01-28T18:09:32.111Z,101193.75
2024-01-28T18:12:35.182Z,101198.45
2024-01-28T18:15:38.446Z,101197.63
2024-01-28T18:18:42.449Z,101202.56
2024-01-28T18:21:45.570Z,101200.69
2024-01-28T18:24:49.929Z,101199.40
2024-01-28T18:27:54.348Z,101200.77
2024-01-28T18:30:57.272Z,101199.31
2024-01-28T18:34:02.213Z,101200.89
2024-01-28T18:37:05.418Z,101209.49
2024-01-28T18:40:11.084Z,101208.57
2024-01-28T18:43:14.019Z,101206.31
2024-01-28T18:46:17.987Z,101209.23
2024-01-28T18:49:22.774Z,101214.65
2024-01-28T18:52:25.789Z,101220.70
2024-01-28T18:55:28.931Z,101220.45
2024-01-28T18:58:31.816Z,101217.95
2024-01-28T19:01:34.843Z,101214.77
2024-01-28T19:04:37.953Z,101219.06
2024-01-28T19:07:41.026Z,101220.30
2024-01-28T19:10:45.169Z,101220.52
2024-01-28T19:13:49.311Z,101215.75
2024-01-28T19:16:52.170Z,101210.58
2024-01-28T19:19:55.133Z,101211.65
2024-01-28T19:22:57.967Z,101211.46
2024-01-28T19:26:00.933Z,101205.82
2024-01-28T19:29:04.241Z,101199.60
2024-01-28T19:32:07.615Z,101201.65
2024-01-28T19:35:10.637Z,101200.36
2024-01-28T19:38:13.512Z,101196.63
2024-01-28T19:41:16.437Z,101199.88
2024-01-28T19:44:19.774Z,101200.70
2024-01-28T19:47:22.757Z,101202.54
2024-01-28T19:50:25.570Z,101199.90
2024-01-28T19:53:28.718Z,101187.59
2024-01-28T19:56:31.542Z,101184.30
2024-01-28T19:59:34.562Z,101184.58
2024-01-28T20:02:37.772Z,101177.33
2024-01-28T20:05:42.105Z,101178.85
2024-01-28T20:08:46.207Z,101182.64
2024-01-28T20:11:49.187Z,101180.77
2024-01-28T20:14:52.444Z,101170.61
2024-01-28T20:17:55.356Z,101158.13
2024-01-28T20:20:59.348Z,101165.35
2024-01-28T20:24:02.249Z,101169.02
2024-01-28T20:27:05.422Z,101177.60
2024-01-28T20:30:09.381Z,101174.33
2024-01-28T20:33:12.407Z,101179.55
2024-01-28T20:36:15.511Z,101184.45
2024-01-28T20:39:18.418Z,101184.11
2024-01-28T20:42:21.334Z,101187.08
2024-01-28T20:45:24.376Z,101181.05
2024-01-28T20:48:27.382Z,101188.11
2024-01-28T20:51:30.444Z,101184.20
2024-01-28T20:54:33.756Z,101181.23
2024-01-28T20:57:37.057Z,101180.08
2024-01-28T21:00:40.500Z,101175.17
2024-01-28T21:03:43.358Z,101171.23
2024-01-28T21:06:46.487Z,101171.41
2024-01-28T21:09:50.039Z,101177.05
2024-01-28T21:12:53.162Z,101181.48
2024-01-28T21:15:56.110Z,101181.58
2024-01-28T21:18:59.067Z,101184.41
2024-01-28T21:22:02.128Z,101190.17
2024-01-28T21:25:05.689Z,101194.13
2024-01-28T21:28:08.703Z,101197.25
2024-01-28T21:31:11.664Z,101193.26
2024-01-28T21:34:14.954Z,101196.33
2024-01-28T21:37:17.981Z,101194.69
2024-01-28T21:40:20.795Z,101195.66
2024-01-28T21:43:23.691Z,101194.29
2024-01-28T21:46:26.574Z,101198.27
2024-01-28T21:49:29.521Z,101193.00
2024-01-28T21:52:32.357Z,101191.45
2024-01-28T21:55:38.267Z,101198.67
2024-01-28T21:58:41.553Z,101201.64
2024-01-28T22:01:44.881Z,101197.26
2024-01-28T22:04:47.837Z,101196.02
2024-01-28T22:07:50.870Z,101190.77
2024-01-28T22:10:53.881Z,101186.98
2024-01-28T22:13:56.735Z,101190.88
2024-01-28T22:16:59.598Z,101190.96
2024-01-28T22:20:04.086Z,101187.17
2024-01-28T22:23:07.070Z,101199.11
2024-01-28T22:26:10.044Z,101210.77
2024-01-28T22:29:13.550Z,101210.98
2024-01-28T22:32:16.793Z,101211.32
2024-01-28T22:35:19.971Z,101212.77
2024-01-28T22:38:22.931Z,101213.15
2024-01-28T22:41:25.832Z,101220.01
2024-01-28T22:44:28.661Z,101214.20
2024-01-28T22:47:31.640Z,101206.38
2024-01-28T22:50:41.417Z,101196.13
2024-01-28T22:53:44.714Z,101195.69
2024-01-28T22:56:47.599Z,101196.27
2024-01-28T22:59:50.456Z,101191.66
2024-01-28T23:02:54.289Z,101190.11
2024-01-28T23:05:58.849Z,101181.44
2024-01-28T23:09:02.287Z,101177.17
2024-01-28T23:12:06.412Z,101179.04
2024-01-28T23:15:15.268Z,101175.91
2024-01-28T23:18:24.745Z,101176.35
2024-01-28T23:21:27.740Z,101176.70
2024-01-28T23:24:30.764Z,101175.09
2024-01-28T23:27:33.699Z,101178.10
2024-01-28T23:30:38.184Z,101178.07
2024-01-28T23:33:41.234Z,101176.15
2024-01-28T23:36:44.537Z,101173.64
2024-01-28T23:39:47.470Z,101174.06
2024-01-28T23:42:50.931Z,101170.39
2024-01-28T23:45:53.921Z,101169.73
2024-01-28T23:48:56.928Z,101170.53
2024-01-28T23:52:00.675Z,101176.56
2024-01-28T23:55:04.682Z,101176.31
2024-01-28T23:58:07.746Z,101177.06
